sensor_id;sensor_type;location;lat;lon;timestamp;P1;durP1;ratioP1;P2;durP2;ratioP2
60292;SDS011;52402;52.670;6.750;2022-10-18T00:02:17;212.55;;;72.22;;
60292;SDS011;52402;52.670;6.750;2022-10-18T00:04:44;340.65;;;84.25;;
60292;SDS011;52402;52.670;6.750;2022-10-18T00:07:10;235.93;;;78.30;;
60292;SDS011;52402;52.670;6.750;2022-10-18T00:09:35;233.32;;;73.50;;
60292;SDS011;52402;52.670;6.750;2022-10-18T00:12:01;111.15;;;61.72;;
60292;SDS011;52402;52.670;6.750;2022-10-18T00:14:27;720.00;;;90.70;;
60292;SDS011;52402;52.670;6.750;2022-10-18T00:16:53;648.33;;;90.63;;
60292;SDS011;52402;52.670;6.750;2022-10-18T00:19:18;882.28;;;108.93;;
60292;SDS011;52402;52.670;6.750;2022-10-18T00:21:44;1351.72;;;135.27;;
60292;SDS011;52402;52.670;6.750;2022-10-18T00:24:09;418.33;;;86.15;;
60292;SDS011;52402;52.670;6.750;2022-10-18T00:26:35;167.13;;;66.82;;
60292;SDS011;52402;52.670;6.750;2022-10-18T00:29:02;1230.63;;;113.32;;
60292;SDS011;52402;52.670;6.750;2022-10-18T00:31:31;737.67;;;97.00;;
60292;SDS011;52402;52.670;6.750;2022-10-18T00:33:59;298.08;;;78.22;;
60292;SDS011;52402;52.670;6.750;2022-10-18T00:36:27;458.80;;;85.75;;
60292;SDS011;52402;52.670;6.750;2022-10-18T00:38:54;294.05;;;79.85;;
60292;SDS011;52402;52.670;6.750;2022-10-18T00:41:21;341.08;;;80.97;;
60292;SDS011;52402;52.670;6.750;2022-10-18T00:43:49;116.35;;;60.72;;
60292;SDS011;52402;52.670;6.750;2022-10-18T00:46:27;737.17;;;85.45;;
60292;SDS011;52402;52.670;6.750;2022-10-18T00:48:54;286.45;;;69.15;;
60292;SDS011;52402;52.670;6.750;2022-10-18T00:51:22;198.57;;;59.38;;
60292;SDS011;52402;52.670;6.750;2022-10-18T00:53:52;317.63;;;75.20;;
60292;SDS011;52402;52.670;6.750;2022-10-18T00:56:18;219.98;;;70.72;;
60292;SDS011;52402;52.670;6.750;2022-10-18T00:58:45;667.92;;;105.38;;
60292;SDS011;52402;52.670;6.750;2022-10-18T01:01:12;227.07;;;67.82;;
60292;SDS011;52402;52.670;6.750;2022-10-18T01:03:38;104.05;;;53.90;;
60292;SDS011;52402;52.670;6.750;2022-10-18T01:06:06;173.57;;;66.72;;
60292;SDS011;52402;52.670;6.750;2022-10-18T01:22:47;152.70;;;60.75;;
60292;SDS011;52402;52.670;6.750;2022-10-18T01:28:22;281.65;;;78.07;;
60292;SDS011;52402;52.670;6.750;2022-10-18T01:31:10;119.22;;;59.38;;
60292;SDS011;52402;52.670;6.750;2022-10-18T01:33:45;83.13;;;49.97;;
60292;SDS011;52402;52.670;6.750;2022-10-18T01:38:51;183.10;;;66.07;;
60292;SDS011;52402;52.670;6.750;2022-10-18T01:41:19;148.52;;;61.42;;
60292;SDS011;52402;52.670;6.750;2022-10-18T01:43:48;270.58;;;73.72;;
60292;SDS011;52402;52.670;6.750;2022-10-18T01:48:46;307.13;;;72.43;;
60292;SDS011;52402;52.670;6.750;2022-10-18T01:51:12;87.40;;;50.47;;
60292;SDS011;52402;52.670;6.750;2022-10-18T01:53:37;195.60;;;62.22;;
60292;SDS011;52402;52.670;6.750;2022-10-18T02:01:18;252.52;;;72.05;;
60292;SDS011;52402;52.670;6.750;2022-10-18T02:03:53;229.23;;;65.40;;
60292;SDS011;52402;52.670;6.750;2022-10-18T02:06:23;350.63;;;76.95;;
60292;SDS011;52402;52.670;6.750;2022-10-18T02:11:30;112.85;;;53.60;;
60292;SDS011;52402;52.670;6.750;2022-10-18T02:13:59;180.80;;;57.70;;
60292;SDS011;52402;52.670;6.750;2022-10-18T02:19:14;80.80;;;51.75;;
60292;SDS011;52402;52.670;6.750;2022-10-18T02:21:49;556.42;;;84.40;;
60292;SDS011;52402;52.670;6.750;2022-10-18T02:24:17;566.17;;;78.90;;
60292;SDS011;52402;52.670;6.750;2022-10-18T02:26:45;201.98;;;62.90;;
60292;SDS011;52402;52.670;6.750;2022-10-18T02:29:11;1196.13;;;110.88;;
60292;SDS011;52402;52.670;6.750;2022-10-18T02:34:29;607.28;;;89.28;;
60292;SDS011;52402;52.670;6.750;2022-10-18T02:37:01;280.38;;;63.10;;
60292;SDS011;52402;52.670;6.750;2022-10-18T02:39:34;119.25;;;52.88;;
60292;SDS011;52402;52.670;6.750;2022-10-18T02:42:18;451.35;;;76.55;;
60292;SDS011;52402;52.670;6.750;2022-10-18T02:44:43;215.57;;;57.30;;
60292;SDS011;52402;52.670;6.750;2022-10-18T02:47:09;350.23;;;68.60;;
60292;SDS011;52402;52.670;6.750;2022-10-18T02:49:35;522.60;;;69.95;;
60292;SDS011;52402;52.670;6.750;2022-10-18T02:52:01;168.10;;;54.55;;
60292;SDS011;52402;52.670;6.750;2022-10-18T02:54:27;337.67;;;66.68;;
60292;SDS011;52402;52.670;6.750;2022-10-18T02:56:52;428.83;;;72.93;;
60292;SDS011;52402;52.670;6.750;2022-10-18T02:59:18;454.23;;;73.93;;
60292;SDS011;52402;52.670;6.750;2022-10-18T03:01:43;233.73;;;60.08;;
60292;SDS011;52402;52.670;6.750;2022-10-18T03:04:09;223.07;;;56.25;;
60292;SDS011;52402;52.670;6.750;2022-10-18T03:06:36;220.75;;;57.40;;
60292;SDS011;52402;52.670;6.750;2022-10-18T03:09:02;333.13;;;55.05;;
60292;SDS011;52402;52.670;6.750;2022-10-18T03:11:31;89.43;;;47.63;;
60292;SDS011;52402;52.670;6.750;2022-10-18T03:13:56;551.55;;;82.68;;
60292;SDS011;52402;52.670;6.750;2022-10-18T03:16:22;248.23;;;54.10;;
60292;SDS011;52402;52.670;6.750;2022-10-18T03:18:48;542.45;;;70.97;;
60292;SDS011;52402;52.670;6.750;2022-10-18T03:21:13;591.85;;;72.53;;
60292;SDS011;52402;52.670;6.750;2022-10-18T03:23:39;112.95;;;49.75;;
60292;SDS011;52402;52.670;6.750;2022-10-18T03:26:06;609.33;;;73.88;;
60292;SDS011;52402;52.670;6.750;2022-10-18T03:28:32;469.42;;;67.20;;
60292;SDS011;52402;52.670;6.750;2022-10-18T03:31:01;245.85;;;60.60;;
60292;SDS011;52402;52.670;6.750;2022-10-18T03:33:29;72.93;;;43.10;;
60292;SDS011;52402;52.670;6.750;2022-10-18T03:35:55;97.28;;;48.97;;
60292;SDS011;52402;52.670;6.750;2022-10-18T03:38:21;231.52;;;55.28;;
60292;SDS011;52402;52.670;6.750;2022-10-18T03:40:46;256.42;;;53.28;;
60292;SDS011;52402;52.670;6.750;2022-10-18T03:43:12;89.32;;;47.28;;
60292;SDS011;52402;52.670;6.750;2022-10-18T03:45:38;71.50;;;43.55;;
60292;SDS011;52402;52.670;6.750;2022-10-18T03:48:04;494.27;;;69.60;;
60292;SDS011;52402;52.670;6.750;2022-10-18T03:50:31;228.30;;;51.65;;
60292;SDS011;52402;52.670;6.750;2022-10-18T03:52:56;302.65;;;58.50;;
60292;SDS011;52402;52.670;6.750;2022-10-18T03:55:22;203.98;;;51.78;;
60292;SDS011;52402;52.670;6.750;2022-10-18T03:57:48;191.20;;;49.85;;
60292;SDS011;52402;52.670;6.750;2022-10-18T04:00:14;155.50;;;44.90;;
60292;SDS011;52402;52.670;6.750;2022-10-18T04:02:40;426.38;;;68.65;;
60292;SDS011;52402;52.670;6.750;2022-10-18T04:05:06;562.90;;;70.45;;
60292;SDS011;52402;52.670;6.750;2022-10-18T04:07:32;85.82;;;41.35;;
60292;SDS011;52402;52.670;6.750;2022-10-18T04:09:58;374.02;;;70.40;;
60292;SDS011;52402;52.670;6.750;2022-10-18T04:12:24;44.42;;;37.85;;
60292;SDS011;52402;52.670;6.750;2022-10-18T04:14:50;172.10;;;50.35;;
60292;SDS011;52402;52.670;6.750;2022-10-18T04:17:15;257.15;;;52.70;;
60292;SDS011;52402;52.670;6.750;2022-10-18T04:19:41;184.30;;;50.65;;
60292;SDS011;52402;52.670;6.750;2022-10-18T04:22:07;258.58;;;56.00;;
60292;SDS011;52402;52.670;6.750;2022-10-18T04:24:33;192.07;;;52.15;;
60292;SDS011;52402;52.670;6.750;2022-10-18T04:26:59;347.80;;;65.45;;
60292;SDS011;52402;52.670;6.750;2022-10-18T04:29:25;568.72;;;84.85;;
60292;SDS011;52402;52.670;6.750;2022-10-18T04:31:50;422.13;;;73.03;;
60292;SDS011;52402;52.670;6.750;2022-10-18T04:34:16;110.32;;;48.53;;
60292;SDS011;52402;52.670;6.750;2022-10-18T04:36:41;120.05;;;49.78;;
60292;SDS011;52402;52.670;6.750;2022-10-18T04:39:07;393.60;;;64.05;;
60292;SDS011;52402;52.670;6.750;2022-10-18T04:41:33;418.25;;;69.53;;
60292;SDS011;52402;52.670;6.750;2022-10-18T04:43:58;220.43;;;57.30;;
60292;SDS011;52402;52.670;6.750;2022-10-18T04:46:24;225.43;;;59.45;;
60292;SDS011;52402;52.670;6.750;2022-10-18T04:48:49;273.23;;;60.72;;
60292;SDS011;52402;52.670;6.750;2022-10-18T04:51:15;179.52;;;50.85;;
60292;SDS011;52402;52.670;6.750;2022-10-18T04:53:40;144.70;;;50.50;;
60292;SDS011;52402;52.670;6.750;2022-10-18T04:56:06;383.00;;;67.32;;
60292;SDS011;52402;52.670;6.750;2022-10-18T04:58:32;356.35;;;67.78;;
60292;SDS011;52402;52.670;6.750;2022-10-18T05:00:57;262.15;;;62.47;;
60292;SDS011;52402;52.670;6.750;2022-10-18T05:03:23;169.00;;;57.03;;
60292;SDS011;52402;52.670;6.750;2022-10-18T05:05:49;231.52;;;58.45;;
60292;SDS011;52402;52.670;6.750;2022-10-18T05:08:14;712.28;;;93.50;;
60292;SDS011;52402;52.670;6.750;2022-10-18T05:10:40;407.48;;;72.75;;
60292;SDS011;52402;52.670;6.750;2022-10-18T05:13:05;189.18;;;53.08;;
60292;SDS011;52402;52.670;6.750;2022-10-18T05:15:31;341.30;;;69.15;;
60292;SDS011;52402;52.670;6.750;2022-10-18T05:17:57;201.52;;;54.40;;
60292;SDS011;52402;52.670;6.750;2022-10-18T05:20:24;231.55;;;59.75;;
60292;SDS011;52402;52.670;6.750;2022-10-18T05:22:50;686.95;;;95.60;;
60292;SDS011;52402;52.670;6.750;2022-10-18T05:25:15;181.07;;;55.67;;
60292;SDS011;52402;52.670;6.750;2022-10-18T05:27:41;159.32;;;52.38;;
60292;SDS011;52402;52.670;6.750;2022-10-18T05:30:07;393.27;;;68.07;;
60292;SDS011;52402;52.670;6.750;2022-10-18T05:32:33;345.33;;;64.80;;
60292;SDS011;52402;52.670;6.750;2022-10-18T05:34:58;458.13;;;74.32;;
60292;SDS011;52402;52.670;6.750;2022-10-18T05:37:24;199.50;;;49.45;;
60292;SDS011;52402;52.670;6.750;2022-10-18T05:39:49;591.28;;;86.25;;
60292;SDS011;52402;52.670;6.750;2022-10-18T05:42:16;208.98;;;48.08;;
60292;SDS011;52402;52.670;6.750;2022-10-18T05:44:45;393.90;;;66.05;;
60292;SDS011;52402;52.670;6.750;2022-10-18T05:49:41;195.13;;;53.90;;
60292;SDS011;52402;52.670;6.750;2022-10-18T05:52:06;214.82;;;50.28;;
60292;SDS011;52402;52.670;6.750;2022-10-18T05:54:32;512.90;;;75.75;;
60292;SDS011;52402;52.670;6.750;2022-10-18T05:56:58;65.95;;;40.22;;
60292;SDS011;52402;52.670;6.750;2022-10-18T05:59:23;250.95;;;57.70;;
60292;SDS011;52402;52.670;6.750;2022-10-18T06:01:49;152.07;;;47.22;;
60292;SDS011;52402;52.670;6.750;2022-10-18T06:04:14;338.77;;;64.22;;
60292;SDS011;52402;52.670;6.750;2022-10-18T06:06:42;242.23;;;56.42;;
60292;SDS011;52402;52.670;6.750;2022-10-18T06:09:07;184.32;;;47.38;;
60292;SDS011;52402;52.670;6.750;2022-10-18T06:11:33;127.38;;;48.00;;
60292;SDS011;52402;52.670;6.750;2022-10-18T06:14:00;267.35;;;62.20;;
60292;SDS011;52402;52.670;6.750;2022-10-18T06:16:28;151.45;;;48.08;;
60292;SDS011;52402;52.670;6.750;2022-10-18T06:18:54;257.88;;;58.13;;
60292;SDS011;52402;52.670;6.750;2022-10-18T06:21:22;232.60;;;53.30;;
60292;SDS011;52402;52.670;6.750;2022-10-18T06:23:48;218.70;;;51.08;;
60292;SDS011;52402;52.670;6.750;2022-10-18T06:26:15;100.10;;;42.50;;
60292;SDS011;52402;52.670;6.750;2022-10-18T06:28:41;274.63;;;55.90;;
60292;SDS011;52402;52.670;6.750;2022-10-18T06:31:07;291.63;;;59.05;;
60292;SDS011;52402;52.670;6.750;2022-10-18T06:33:34;170.32;;;50.05;;
60292;SDS011;52402;52.670;6.750;2022-10-18T06:36:05;78.65;;;38.55;;
60292;SDS011;52402;52.670;6.750;2022-10-18T06:38:32;217.80;;;51.25;;
60292;SDS011;52402;52.670;6.750;2022-10-18T06:40:58;250.73;;;54.45;;
60292;SDS011;52402;52.670;6.750;2022-10-18T06:43:24;63.15;;;35.92;;
60292;SDS011;52402;52.670;6.750;2022-10-18T06:45:50;145.30;;;48.58;;
60292;SDS011;52402;52.670;6.750;2022-10-18T06:48:17;120.63;;;43.78;;
60292;SDS011;52402;52.670;6.750;2022-10-18T06:50:50;192.88;;;45.00;;
60292;SDS011;52402;52.670;6.750;2022-10-18T06:53:17;146.02;;;39.50;;
60292;SDS011;52402;52.670;6.750;2022-10-18T06:55:42;262.98;;;47.75;;
60292;SDS011;52402;52.670;6.750;2022-10-18T06:58:08;103.03;;;33.90;;
60292;SDS011;52402;52.670;6.750;2022-10-18T07:00:34;45.20;;;29.25;;
60292;SDS011;52402;52.670;6.750;2022-10-18T07:03:00;162.88;;;40.92;;
60292;SDS011;52402;52.670;6.750;2022-10-18T07:05:25;134.82;;;36.30;;
60292;SDS011;52402;52.670;6.750;2022-10-18T07:07:51;318.83;;;54.28;;
60292;SDS011;52402;52.670;6.750;2022-10-18T07:10:17;111.00;;;40.03;;
60292;SDS011;52402;52.670;6.750;2022-10-18T07:12:43;241.13;;;50.63;;
60292;SDS011;52402;52.670;6.750;2022-10-18T07:15:08;261.23;;;52.00;;
60292;SDS011;52402;52.670;6.750;2022-10-18T07:17:35;68.28;;;35.10;;
60292;SDS011;52402;52.670;6.750;2022-10-18T07:20:01;100.93;;;35.63;;
60292;SDS011;52402;52.670;6.750;2022-10-18T07:22:28;177.43;;;42.40;;
60292;SDS011;52402;52.670;6.750;2022-10-18T07:24:54;83.00;;;34.97;;
60292;SDS011;52402;52.670;6.750;2022-10-18T07:27:20;183.80;;;46.58;;
60292;SDS011;52402;52.670;6.750;2022-10-18T07:29:46;158.77;;;35.00;;
60292;SDS011;52402;52.670;6.750;2022-10-18T07:32:12;189.48;;;39.05;;
60292;SDS011;52402;52.670;6.750;2022-10-18T07:34:38;185.93;;;39.08;;
60292;SDS011;52402;52.670;6.750;2022-10-18T07:37:04;144.95;;;31.45;;
60292;SDS011;52402;52.670;6.750;2022-10-18T07:39:29;120.00;;;32.90;;
60292;SDS011;52402;52.670;6.750;2022-10-18T07:41:55;179.98;;;44.47;;
60292;SDS011;52402;52.670;6.750;2022-10-18T07:44:21;77.57;;;31.55;;
60292;SDS011;52402;52.670;6.750;2022-10-18T07:46:47;70.25;;;30.13;;
60292;SDS011;52402;52.670;6.750;2022-10-18T07:49:12;93.78;;;37.13;;
60292;SDS011;52402;52.670;6.750;2022-10-18T07:51:38;168.57;;;43.90;;
60292;SDS011;52402;52.670;6.750;2022-10-18T07:54:03;122.75;;;35.00;;
60292;SDS011;52402;52.670;6.750;2022-10-18T07:56:29;128.85;;;38.85;;
60292;SDS011;52402;52.670;6.750;2022-10-18T07:58:55;60.90;;;33.28;;
60292;SDS011;52402;52.670;6.750;2022-10-18T08:01:21;46.58;;;27.52;;
60292;SDS011;52402;52.670;6.750;2022-10-18T08:03:48;57.83;;;28.27;;
60292;SDS011;52402;52.670;6.750;2022-10-18T08:06:15;56.08;;;25.90;;
60292;SDS011;52402;52.670;6.750;2022-10-18T08:08:42;77.13;;;31.15;;
60292;SDS011;52402;52.670;6.750;2022-10-18T08:11:10;75.05;;;33.75;;
60292;SDS011;52402;52.670;6.750;2022-10-18T08:13:37;170.73;;;41.85;;
60292;SDS011;52402;52.670;6.750;2022-10-18T08:16:07;98.38;;;36.25;;
60292;SDS011;52402;52.670;6.750;2022-10-18T08:18:34;37.38;;;28.92;;
60292;SDS011;52402;52.670;6.750;2022-10-18T08:21:01;48.30;;;30.10;;
60292;SDS011;52402;52.670;6.750;2022-10-18T08:23:29;30.52;;;25.45;;
60292;SDS011;52402;52.670;6.750;2022-10-18T08:25:54;62.15;;;34.00;;
60292;SDS011;52402;52.670;6.750;2022-10-18T08:28:20;77.70;;;35.53;;
60292;SDS011;52402;52.670;6.750;2022-10-18T08:30:46;100.22;;;34.28;;
60292;SDS011;52402;52.670;6.750;2022-10-18T08:33:11;95.40;;;36.33;;
60292;SDS011;52402;52.670;6.750;2022-10-18T08:35:37;101.05;;;37.13;;
60292;SDS011;52402;52.670;6.750;2022-10-18T08:38:02;58.97;;;31.95;;
60292;SDS011;52402;52.670;6.750;2022-10-18T08:40:29;49.65;;;32.05;;
60292;SDS011;52402;52.670;6.750;2022-10-18T08:43:07;70.53;;;37.63;;
60292;SDS011;52402;52.670;6.750;2022-10-18T08:45:55;147.20;;;37.30;;
60292;SDS011;52402;52.670;6.750;2022-10-18T08:48:28;55.08;;;28.92;;
60292;SDS011;52402;52.670;6.750;2022-10-18T08:51:01;37.38;;;26.33;;
60292;SDS011;52402;52.670;6.750;2022-10-18T08:53:35;43.78;;;30.13;;
60292;SDS011;52402;52.670;6.750;2022-10-18T08:56:15;38.47;;;29.65;;
60292;SDS011;52402;52.670;6.750;2022-10-18T08:58:45;28.02;;;24.88;;
60292;SDS011;52402;52.670;6.750;2022-10-18T09:06:43;28.55;;;23.95;;
60292;SDS011;52402;52.670;6.750;2022-10-18T09:15:11;24.02;;;21.50;;
60292;SDS011;52402;52.670;6.750;2022-10-18T09:17:57;28.48;;;22.13;;
60292;SDS011;52402;52.670;6.750;2022-10-18T09:20:33;24.23;;;21.63;;
60292;SDS011;52402;52.670;6.750;2022-10-18T09:23:21;26.42;;;22.35;;
60292;SDS011;52402;52.670;6.750;2022-10-18T09:25:59;29.65;;;22.70;;
60292;SDS011;52402;52.670;6.750;2022-10-18T09:31:42;28.85;;;23.55;;
60292;SDS011;52402;52.670;6.750;2022-10-18T09:34:27;26.77;;;21.65;;
60292;SDS011;52402;52.670;6.750;2022-10-18T09:37:03;27.05;;;23.55;;
60292;SDS011;52402;52.670;6.750;2022-10-18T09:39:36;25.05;;;21.23;;
60292;SDS011;52402;52.670;6.750;2022-10-18T09:42:10;26.92;;;21.70;;
60292;SDS011;52402;52.670;6.750;2022-10-18T09:44:48;22.95;;;20.45;;
60292;SDS011;52402;52.670;6.750;2022-10-18T09:47:18;23.30;;;20.73;;
60292;SDS011;52402;52.670;6.750;2022-10-18T09:49:50;21.70;;;19.42;;
60292;SDS011;52402;52.670;6.750;2022-10-18T09:52:24;24.13;;;19.67;;
60292;SDS011;52402;52.670;6.750;2022-10-18T09:55:04;23.15;;;20.45;;
60292;SDS011;52402;52.670;6.750;2022-10-18T09:57:40;24.65;;;20.90;;
60292;SDS011;52402;52.670;6.750;2022-10-18T10:00:14;28.40;;;24.05;;
60292;SDS011;52402;52.670;6.750;2022-10-18T10:02:44;23.15;;;20.73;;
60292;SDS011;52402;52.670;6.750;2022-10-18T10:05:13;23.98;;;21.15;;
60292;SDS011;52402;52.670;6.750;2022-10-18T10:07:41;27.70;;;21.20;;
60292;SDS011;52402;52.670;6.750;2022-10-18T10:10:16;27.75;;;24.00;;
60292;SDS011;52402;52.670;6.750;2022-10-18T10:12:52;28.73;;;21.55;;
60292;SDS011;52402;52.670;6.750;2022-10-18T10:15:28;25.58;;;22.73;;
60292;SDS011;52402;52.670;6.750;2022-10-18T10:18:02;27.90;;;22.48;;
60292;SDS011;52402;52.670;6.750;2022-10-18T10:23:07;24.85;;;20.70;;
60292;SDS011;52402;52.670;6.750;2022-10-18T10:25:48;28.13;;;20.73;;
60292;SDS011;52402;52.670;6.750;2022-10-18T10:28:29;20.45;;;18.10;;
60292;SDS011;52402;52.670;6.750;2022-10-18T10:36:23;19.92;;;17.20;;
60292;SDS011;52402;52.670;6.750;2022-10-18T10:41:42;17.50;;;15.25;;
60292;SDS011;52402;52.670;6.750;2022-10-18T10:44:14;19.30;;;16.15;;
60292;SDS011;52402;52.670;6.750;2022-10-18T10:46:44;21.63;;;15.70;;
60292;SDS011;52402;52.670;6.750;2022-10-18T10:49:22;18.67;;;15.40;;
60292;SDS011;52402;52.670;6.750;2022-10-18T10:51:53;22.17;;;15.55;;
60292;SDS011;52402;52.670;6.750;2022-10-18T10:54:24;18.27;;;15.88;;
60292;SDS011;52402;52.670;6.750;2022-10-18T10:57:04;21.23;;;15.18;;
60292;SDS011;52402;52.670;6.750;2022-10-18T10:59:45;18.75;;;14.63;;
60292;SDS011;52402;52.670;6.750;2022-10-18T11:04:38;18.92;;;12.57;;
60292;SDS011;52402;52.670;6.750;2022-10-18T11:09:49;14.50;;;9.48;;
60292;SDS011;52402;52.670;6.750;2022-10-18T11:13:22;13.60;;;7.07;;
60292;SDS011;52402;52.670;6.750;2022-10-18T11:15:48;14.07;;;8.13;;
60292;SDS011;52402;52.670;6.750;2022-10-18T11:18:29;15.75;;;7.95;;
60292;SDS011;52402;52.670;6.750;2022-10-18T11:21:12;12.23;;;5.70;;
60292;SDS011;52402;52.670;6.750;2022-10-18T11:23:46;12.38;;;4.45;;
60292;SDS011;52402;52.670;6.750;2022-10-18T11:45:57;11.68;;;4.05;;
60292;SDS011;52402;52.670;6.750;2022-10-18T11:51:53;12.88;;;3.53;;
60292;SDS011;52402;52.670;6.750;2022-10-18T12:05:11;11.27;;;2.30;;
60292;SDS011;52402;52.670;6.750;2022-10-18T12:07:42;10.70;;;2.63;;
60292;SDS011;52402;52.670;6.750;2022-10-18T12:10:15;8.48;;;2.05;;
60292;SDS011;52402;52.670;6.750;2022-10-18T12:12:51;8.27;;;2.45;;
60292;SDS011;52402;52.670;6.750;2022-10-18T12:15:22;9.60;;;2.55;;
60292;SDS011;52402;52.670;6.750;2022-10-18T12:18:02;10.07;;;2.50;;
60292;SDS011;52402;52.670;6.750;2022-10-18T12:20:44;10.98;;;2.17;;
60292;SDS011;52402;52.670;6.750;2022-10-18T12:23:19;11.30;;;2.25;;
60292;SDS011;52402;52.670;6.750;2022-10-18T12:25:48;10.57;;;2.08;;
60292;SDS011;52402;52.670;6.750;2022-10-18T12:33:40;11.50;;;2.17;;
60292;SDS011;52402;52.670;6.750;2022-10-18T12:36:54;9.55;;;2.08;;
60292;SDS011;52402;52.670;6.750;2022-10-18T12:39:35;8.90;;;2.03;;
60292;SDS011;52402;52.670;6.750;2022-10-18T12:42:03;10.82;;;2.30;;
60292;SDS011;52402;52.670;6.750;2022-10-18T12:44:30;11.23;;;2.45;;
60292;SDS011;52402;52.670;6.750;2022-10-18T12:46:58;11.27;;;2.67;;
60292;SDS011;52402;52.670;6.750;2022-10-18T12:54:28;10.20;;;2.00;;
60292;SDS011;52402;52.670;6.750;2022-10-18T13:09:32;8.40;;;2.03;;
60292;SDS011;52402;52.670;6.750;2022-10-18T13:17:48;9.75;;;2.42;;
60292;SDS011;52402;52.670;6.750;2022-10-18T13:20:20;11.82;;;2.47;;
60292;SDS011;52402;52.670;6.750;2022-10-18T13:25:49;8.13;;;1.92;;
60292;SDS011;52402;52.670;6.750;2022-10-18T13:31:18;9.23;;;2.00;;
60292;SDS011;52402;52.670;6.750;2022-10-18T13:33:49;9.90;;;1.90;;
60292;SDS011;52402;52.670;6.750;2022-10-18T13:38:42;8.85;;;1.80;;
60292;SDS011;52402;52.670;6.750;2022-10-18T13:48:58;9.73;;;2.03;;
60292;SDS011;52402;52.670;6.750;2022-10-18T13:54:39;10.45;;;2.13;;
60292;SDS011;52402;52.670;6.750;2022-10-18T14:05:44;7.70;;;1.70;;
60292;SDS011;52402;52.670;6.750;2022-10-18T14:08:23;10.73;;;1.95;;
60292;SDS011;52402;52.670;6.750;2022-10-18T14:10:58;8.23;;;1.60;;
60292;SDS011;52402;52.670;6.750;2022-10-18T14:13:40;10.95;;;2.50;;
60292;SDS011;52402;52.670;6.750;2022-10-18T14:16:16;10.15;;;2.05;;
60292;SDS011;52402;52.670;6.750;2022-10-18T14:19:49;8.98;;;1.95;;
60292;SDS011;52402;52.670;6.750;2022-10-18T14:21:54;8.88;;;1.77;;
60292;SDS011;52402;52.670;6.750;2022-10-18T14:24:24;10.95;;;2.10;;
60292;SDS011;52402;52.670;6.750;2022-10-18T14:30:06;10.18;;;2.25;;
60292;SDS011;52402;52.670;6.750;2022-10-18T14:32:51;9.10;;;1.98;;
60292;SDS011;52402;52.670;6.750;2022-10-18T14:35:27;9.95;;;1.90;;
60292;SDS011;52402;52.670;6.750;2022-10-18T14:37:55;9.68;;;2.20;;
60292;SDS011;52402;52.670;6.750;2022-10-18T14:40:31;12.35;;;2.45;;
60292;SDS011;52402;52.670;6.750;2022-10-18T14:43:11;9.57;;;2.25;;
60292;SDS011;52402;52.670;6.750;2022-10-18T14:45:39;8.77;;;2.25;;
60292;SDS011;52402;52.670;6.750;2022-10-18T14:48:06;8.57;;;2.80;;
60292;SDS011;52402;52.670;6.750;2022-10-18T14:50:39;11.18;;;2.50;;
60292;SDS011;52402;52.670;6.750;2022-10-18T14:53:07;9.25;;;2.28;;
60292;SDS011;52402;52.670;6.750;2022-10-18T14:55:37;10.15;;;2.25;;
60292;SDS011;52402;52.670;6.750;2022-10-18T14:58:07;10.20;;;2.30;;
60292;SDS011;52402;52.670;6.750;2022-10-18T15:00:38;9.00;;;2.17;;
60292;SDS011;52402;52.670;6.750;2022-10-18T15:03:04;9.10;;;2.03;;
60292;SDS011;52402;52.670;6.750;2022-10-18T15:05:36;9.50;;;2.15;;
60292;SDS011;52402;52.670;6.750;2022-10-18T15:08:02;8.40;;;1.80;;
60292;SDS011;52402;52.670;6.750;2022-10-18T15:10:29;10.10;;;2.47;;
60292;SDS011;52402;52.670;6.750;2022-10-18T15:12:57;11.43;;;2.78;;
60292;SDS011;52402;52.670;6.750;2022-10-18T15:15:30;9.10;;;2.28;;
60292;SDS011;52402;52.670;6.750;2022-10-18T15:17:58;11.30;;;2.00;;
60292;SDS011;52402;52.670;6.750;2022-10-18T15:20:32;8.98;;;2.05;;
60292;SDS011;52402;52.670;6.750;2022-10-18T15:25:58;10.35;;;2.10;;
60292;SDS011;52402;52.670;6.750;2022-10-18T15:28:27;10.60;;;2.20;;
60292;SDS011;52402;52.670;6.750;2022-10-18T15:30:53;11.02;;;2.58;;
60292;SDS011;52402;52.670;6.750;2022-10-18T15:33:22;12.93;;;2.30;;
60292;SDS011;52402;52.670;6.750;2022-10-18T15:35:49;9.75;;;1.95;;
60292;SDS011;52402;52.670;6.750;2022-10-18T15:40:50;9.50;;;2.10;;
60292;SDS011;52402;52.670;6.750;2022-10-18T15:45:48;10.40;;;2.00;;
60292;SDS011;52402;52.670;6.750;2022-10-18T15:48:32;14.43;;;2.78;;
60292;SDS011;52402;52.670;6.750;2022-10-18T15:51:06;9.73;;;1.90;;
60292;SDS011;52402;52.670;6.750;2022-10-18T15:53:34;11.50;;;2.50;;
60292;SDS011;52402;52.670;6.750;2022-10-18T15:56:35;13.70;;;2.70;;
60292;SDS011;52402;52.670;6.750;2022-10-18T15:59:05;12.50;;;3.20;;
60292;SDS011;52402;52.670;6.750;2022-10-18T16:01:46;12.63;;;2.58;;
60292;SDS011;52402;52.670;6.750;2022-10-18T16:04:23;11.15;;;2.53;;
60292;SDS011;52402;52.670;6.750;2022-10-18T16:06:51;12.00;;;2.78;;
60292;SDS011;52402;52.670;6.750;2022-10-18T16:09:19;14.05;;;2.83;;
60292;SDS011;52402;52.670;6.750;2022-10-18T16:11:46;11.55;;;2.80;;
60292;SDS011;52402;52.670;6.750;2022-10-18T16:14:13;11.95;;;2.58;;
60292;SDS011;52402;52.670;6.750;2022-10-18T16:16:39;16.63;;;2.70;;
60292;SDS011;52402;52.670;6.750;2022-10-18T16:19:05;8.98;;;2.05;;
60292;SDS011;52402;52.670;6.750;2022-10-18T16:21:33;11.43;;;2.72;;
60292;SDS011;52402;52.670;6.750;2022-10-18T16:24:00;10.25;;;2.70;;
60292;SDS011;52402;52.670;6.750;2022-10-18T16:26:27;12.07;;;2.78;;
60292;SDS011;52402;52.670;6.750;2022-10-18T16:28:53;10.77;;;2.60;;
60292;SDS011;52402;52.670;6.750;2022-10-18T16:31:20;10.45;;;2.33;;
60292;SDS011;52402;52.670;6.750;2022-10-18T16:33:48;13.52;;;2.78;;
60292;SDS011;52402;52.670;6.750;2022-10-18T16:36:18;10.57;;;2.40;;
60292;SDS011;52402;52.670;6.750;2022-10-18T16:38:46;14.13;;;2.30;;
60292;SDS011;52402;52.670;6.750;2022-10-18T16:41:12;13.55;;;3.00;;
60292;SDS011;52402;52.670;6.750;2022-10-18T16:43:39;14.55;;;3.05;;
60292;SDS011;52402;52.670;6.750;2022-10-18T16:46:06;11.23;;;2.40;;
60292;SDS011;52402;52.670;6.750;2022-10-18T16:48:39;14.05;;;2.75;;
60292;SDS011;52402;52.670;6.750;2022-10-18T16:51:04;11.57;;;3.08;;
60292;SDS011;52402;52.670;6.750;2022-10-18T16:53:30;13.82;;;2.67;;
60292;SDS011;52402;52.670;6.750;2022-10-18T16:55:57;11.95;;;2.47;;
60292;SDS011;52402;52.670;6.750;2022-10-18T16:58:25;11.70;;;2.80;;
60292;SDS011;52402;52.670;6.750;2022-10-18T17:00:52;12.15;;;2.70;;
60292;SDS011;52402;52.670;6.750;2022-10-18T17:03:18;10.60;;;2.45;;
60292;SDS011;52402;52.670;6.750;2022-10-18T17:05:44;10.30;;;2.58;;
60292;SDS011;52402;52.670;6.750;2022-10-18T17:08:17;11.63;;;2.80;;
60292;SDS011;52402;52.670;6.750;2022-10-18T17:10:45;14.68;;;3.03;;
60292;SDS011;52402;52.670;6.750;2022-10-18T17:13:12;9.88;;;2.90;;
60292;SDS011;52402;52.670;6.750;2022-10-18T17:15:38;13.93;;;3.75;;
60292;SDS011;52402;52.670;6.750;2022-10-18T17:18:08;11.75;;;3.30;;
60292;SDS011;52402;52.670;6.750;2022-10-18T17:20:38;13.77;;;3.58;;
60292;SDS011;52402;52.670;6.750;2022-10-18T17:23:05;9.63;;;3.55;;
60292;SDS011;52402;52.670;6.750;2022-10-18T17:25:32;12.70;;;3.60;;